Time;durP1;ratioP1;P1;durP2;ratioP2;P2;SDS_P1;SDS_P2;PMS_P1;PMS_P2;Temp;Humidity;BMP_temperature;BMP_pressure;BME280_temperature;BME280_humidity;BME280_pressure;Samples;Min_cycle;Max_cycle;Signal;HPM_P1;HPM_P2
2023/05/05 00:02:20;;;;;;;13.15;5.88;;;11.90;99.90;;;;;;5013438;28;20086;-66
2023/05/05 00:04:46;;;;;;;9.93;5.45;;;11.80;99.80;;;;;;5029372;28;20045;-66
2023/05/05 00:07:12;;;;;;;11.88;6.22;;;11.80;99.90;;;;;;5030254;28;20044;-66
2023/05/05 00:09:38;;;;;;;8.20;5.82;;;11.80;99.90;;;;;;5012697;28;20041;-66
2023/05/05 00:12:04;;;;;;;11.10;6.07;;;11.80;99.90;;;;;;5008865;28;20044;-66
2023/05/05 00:14:29;;;;;;;8.60;5.63;;;11.70;99.90;;;;;;5029468;28;20063;-66
2023/05/05 00:16:55;;;;;;;11.15;5.70;;;11.70;99.90;;;;;;5028492;28;20069;-66
2023/05/05 00:19:21;;;;;;;8.57;5.63;;;11.70;99.90;;;;;;5013042;28;20060;-66
2023/05/05 00:21:47;;;;;;;8.40;5.60;;;11.70;99.90;;;;;;5028404;28;20490;-65
2023/05/05 00:24:13;;;;;;;10.98;6.20;;;11.70;99.90;;;;;;4995322;28;20364;-65
2023/05/05 00:26:38;;;;;;;9.00;5.97;;;11.60;99.90;;;;;;5010872;28;20089;-66
2023/05/05 00:29:04;;;;;;;7.80;6.40;;;11.60;99.90;;;;;;5012739;28;20048;-66
2023/05/05 00:31:30;;;;;;;6.38;5.68;;;11.60;99.90;;;;;;5026104;28;20037;-66
2023/05/05 00:33:55;;;;;;;11.55;6.50;;;11.60;99.90;;;;;;5013283;28;20048;-66
2023/05/05 00:36:21;;;;;;;12.93;6.00;;;11.60;99.90;;;;;;5012370;28;20131;-66
2023/05/05 00:38:47;;;;;;;11.27;6.03;;;11.50;99.90;;;;;;5028708;28;20636;-65
2023/05/05 00:41:13;;;;;;;11.82;6.40;;;11.50;99.90;;;;;;4993363;28;20035;-66
2023/05/05 00:43:38;;;;;;;8.98;5.95;;;11.50;99.90;;;;;;5012153;28;20036;-66
2023/05/05 00:46:27;;;;;;;10.52;5.70;;;11.50;99.90;;;;;;5012019;28;20514;-66
2023/05/05 00:48:53;;;;;;;7.40;5.40;;;11.50;99.90;;;;;;5028966;28;20035;-66
2023/05/05 00:51:20;;;;;;;16.92;6.53;;;11.50;99.90;;;;;;5009977;28;20527;-66
2023/05/05 00:53:49;;;;;;;8.80;5.97;;;11.50;99.90;;;;;;5024735;28;20033;-66
2023/05/05 00:56:20;;;;;;;7.50;5.70;;;11.50;99.90;;;;;;5010385;28;20470;-66
2023/05/05 00:58:46;;;;;;;9.65;5.70;;;11.50;99.90;;;;;;5029060;28;20052;-66
2023/05/05 01:01:13;;;;;;;7.35;5.70;;;11.50;99.90;;;;;;5011149;28;20037;-66
2023/05/05 01:03:42;;;;;;;10.82;6.13;;;11.50;99.90;;;;;;5027678;28;20068;-66
2023/05/05 01:06:28;;;;;;;10.85;5.60;;;11.50;99.90;;;;;;5025244;28;20033;-66
2023/05/05 01:09:00;;;;;;;11.20;5.40;;;11.50;99.90;;;;;;5025369;28;20045;-66
2023/05/05 01:11:50;;;;;;;10.23;6.20;;;11.50;99.90;;;;;;5027192;28;20037;-66
2023/05/05 01:14:27;;;;;;;11.57;6.10;;;11.50;99.90;;;;;;5026944;28;20103;-66
2023/05/05 01:16:58;;;;;;;10.40;6.03;;;11.40;99.90;;;;;;5027135;28;20123;-66
2023/05/05 01:19:57;;;;;;;12.10;5.80;;;11.40;99.90;;;;;;5026779;28;20032;-66
2023/05/05 01:22:31;;;;;;;8.40;5.32;;;11.40;99.90;;;;;;5025929;28;20455;-67
2023/05/05 01:25:19;;;;;;;8.13;6.15;;;11.40;99.90;;;;;;5026515;28;20167;-66
2023/05/05 01:28:03;;;;;;;8.35;5.97;;;11.40;99.90;;;;;;5027004;28;20073;-66
2023/05/05 01:30:41;;;;;;;8.35;5.15;;;11.40;99.90;;;;;;5026041;28;20037;-67
2023/05/05 01:33:10;;;;;;;7.88;5.30;;;11.40;99.90;;;;;;5025539;28;20529;-67
2023/05/05 01:35:42;;;;;;;8.43;5.47;;;11.30;99.90;;;;;;5010578;28;20048;-66
2023/05/05 01:38:16;;;;;;;11.57;5.75;;;11.40;99.90;;;;;;5025140;28;20312;-66
2023/05/05 01:40:49;;;;;;;7.07;5.75;;;11.40;99.90;;;;;;5027031;28;20041;-66
2023/05/05 01:43:19;;;;;;;8.02;5.28;;;11.30;99.90;;;;;;5031790;28;20037;-66
2023/05/05 01:45:47;;;;;;;9.07;5.85;;;11.30;99.90;;;;;;5017915;28;20500;-67
2023/05/05 01:48:17;;;;;;;7.28;6.07;;;11.30;99.90;;;;;;5031589;28;20116;-66
2023/05/05 01:50:45;;;;;;;9.32;5.68;;;11.30;99.90;;;;;;5018005;28;20037;-67
2023/05/05 01:53:12;;;;;;;8.70;5.65;;;11.20;99.90;;;;;;5032392;28;20045;-67
2023/05/05 01:55:38;;;;;;;11.60;5.68;;;11.20;99.90;;;;;;5034520;28;20257;-66
2023/05/05 01:58:06;;;;;;;8.60;6.05;;;11.20;99.90;;;;;;5034970;28;20056;-66
2023/05/05 02:00:33;;;;;;;10.88;5.65;;;11.20;99.90;;;;;;5016754;28;20494;-66
2023/05/05 02:03:03;;;;;;;9.93;6.10;;;11.20;99.90;;;;;;5048194;28;20453;-67
2023/05/05 02:05:31;;;;;;;9.13;5.72;;;11.10;99.90;;;;;;5032105;28;20041;-66
2023/05/05 02:07:59;;;;;;;10.25;6.28;;;11.10;99.90;;;;;;5032781;28;20508;-66
2023/05/05 02:10:26;;;;;;;8.98;5.97;;;11.10;99.90;;;;;;5034413;28;20099;-66
2023/05/05 02:12:52;;;;;;;10.68;6.03;;;11.10;99.90;;;;;;5032938;28;20508;-67
2023/05/05 02:15:20;;;;;;;10.52;5.90;;;11.10;99.90;;;;;;5034869;28;20510;-66
2023/05/05 02:17:50;;;;;;;8.38;5.63;;;11.00;99.90;;;;;;5032927;28;20048;-66
2023/05/05 02:20:18;;;;;;;8.93;5.78;;;11.00;99.90;;;;;;5032481;28;20055;-66
2023/05/05 02:22:44;;;;;;;9.18;6.00;;;11.00;99.90;;;;;;5031819;28;20037;-67
2023/05/05 02:25:10;;;;;;;12.73;6.07;;;11.00;99.90;;;;;;5035121;28;20044;-66
2023/05/05 02:27:40;;;;;;;8.18;5.93;;;11.00;99.90;;;;;;5032962;28;20401;-66
2023/05/05 02:30:13;;;;;;;9.45;6.55;;;10.90;99.90;;;;;;5031930;28;20048;-66
2023/05/05 02:32:45;;;;;;;7.97;5.72;;;10.90;99.90;;;;;;5031616;28;20211;-66
2023/05/05 02:35:16;;;;;;;;;;;10.90;99.90;;;;;;5034933;28;20497;-67
2023/05/05 02:37:49;;;;;;;11.68;5.88;;;10.90;99.90;;;;;;5030912;28;19928;-66
2023/05/05 02:40:21;;;;;;;7.70;5.75;;;10.90;99.90;;;;;;5033929;28;20127;-66
2023/05/05 02:42:48;;;;;;;9.02;6.07;;;10.90;99.90;;;;;;5016007;28;20120;-66
2023/05/05 02:45:19;;;;;;;9.52;5.38;;;10.90;99.90;;;;;;5034788;28;20402;-66
2023/05/05 02:47:44;;;;;;;11.52;5.65;;;10.90;99.90;;;;;;5032803;28;20045;-66
2023/05/05 02:50:10;;;;;;;8.27;5.70;;;10.90;99.90;;;;;;5034379;28;20115;-67
2023/05/05 02:52:37;;;;;;;7.65;5.68;;;10.90;99.90;;;;;;5031246;28;20064;-66
2023/05/05 02:55:04;;;;;;;8.07;5.43;;;10.80;99.90;;;;;;5029403;28;20037;-66
2023/05/05 02:57:51;;;;;;;12.98;6.13;;;10.80;99.90;;;;;;5028305;28;20528;-66
2023/05/05 03:00:35;;;;;;;9.57;6.30;;;10.80;99.90;;;;;;5030696;28;20040;-66
2023/05/05 03:03:46;;;;;;;8.95;6.03;;;10.80;99.90;;;;;;5025564;28;20635;-66
2023/05/05 03:06:23;;;;;;;7.32;6.00;;;10.80;99.90;;;;;;4993536;28;20048;-66
2023/05/05 03:09:06;;;;;;;8.82;5.78;;;10.80;99.90;;;;;;5030051;28;20065;-66
2023/05/05 03:11:39;;;;;;;10.15;6.07;;;10.80;99.90;;;;;;5023636;28;20124;-66
2023/05/05 03:14:09;;;;;;;10.23;5.28;;;10.80;99.90;;;;;;5010879;28;20619;-66
2023/05/05 03:16:37;;;;;;;10.48;5.93;;;10.80;99.90;;;;;;5014414;28;20048;-66
2023/05/05 03:19:05;;;;;;;12.45;6.35;;;10.80;99.90;;;;;;5030074;28;20048;-66
2023/05/05 03:21:32;;;;;;;11.48;5.43;;;10.80;99.90;;;;;;5013105;28;20100;-66
2023/05/05 03:23:58;;;;;;;11.65;5.82;;;10.80;99.90;;;;;;5012673;28;20131;-66
2023/05/05 03:26:23;;;;;;;12.70;6.53;;;10.70;99.90;;;;;;5029272;28;20602;-66
2023/05/05 03:28:50;;;;;;;9.00;5.30;;;10.70;99.90;;;;;;5029157;28;20155;-66
2023/05/05 03:31:17;;;;;;;9.38;5.60;;;10.70;99.90;;;;;;5030240;28;20049;-66
2023/05/05 03:33:43;;;;;;;16.42;6.10;;;10.70;99.90;;;;;;5025109;28;20541;-66
2023/05/05 03:36:09;;;;;;;12.65;6.22;;;10.60;99.90;;;;;;5031042;28;20045;-65
2023/05/05 03:38:35;;;;;;;10.93;5.60;;;10.60;99.90;;;;;;5011505;28;20036;-66
2023/05/05 03:41:02;;;;;;;9.15;5.65;;;10.50;99.90;;;;;;5010432;28;20059;-66
2023/05/05 03:43:28;;;;;;;11.20;5.55;;;10.50;99.90;;;;;;5026749;28;20132;-66
2023/05/05 03:45:54;;;;;;;9.13;5.72;;;10.50;99.90;;;;;;5020931;28;20052;-65
2023/05/05 03:48:20;;;;;;;9.73;5.65;;;10.50;99.90;;;;;;5008271;28;20037;-66
2023/05/05 03:50:45;;;;;;;9.80;5.80;;;10.50;99.90;;;;;;5012272;28;20038;-66
2023/05/05 03:53:11;;;;;;;11.07;5.97;;;10.50;99.90;;;;;;5027611;28;20049;-66
2023/05/05 03:55:37;;;;;;;8.68;5.32;;;10.60;99.90;;;;;;5029862;28;20040;-66
2023/05/05 03:58:03;;;;;;;9.73;6.07;;;10.60;99.90;;;;;;5012494;28;20048;-65
2023/05/05 04:00:28;;;;;;;10.85;5.97;;;10.60;99.90;;;;;;5013785;28;20029;-65
2023/05/05 04:02:54;;;;;;;8.63;5.93;;;10.60;99.90;;;;;;5028277;28;20479;-66
2023/05/05 04:05:21;;;;;;;15.73;6.22;;;10.50;99.90;;;;;;5012660;28;20033;-65
2023/05/05 04:07:47;;;;;;;9.82;6.18;;;10.50;99.90;;;;;;5013634;28;20090;-66
2023/05/05 04:10:13;;;;;;;7.35;5.65;;;10.60;99.90;;;;;;4995330;28;20041;-66
2023/05/05 04:12:39;;;;;;;12.23;6.47;;;10.60;99.90;;;;;;5019400;28;20042;-65
2023/05/05 04:15:05;;;;;;;11.52;6.55;;;10.60;99.90;;;;;;4992911;28;20057;-65
2023/05/05 04:17:31;;;;;;;9.02;5.90;;;10.70;99.90;;;;;;5012600;28;20571;-65
2023/05/05 04:19:57;;;;;;;32.63;11.07;;;10.70;99.90;;;;;;5012956;28;20159;-65
2023/05/05 04:22:23;;;;;;;19.65;9.25;;;10.70;99.90;;;;;;5025374;28;20043;-65
2023/05/05 04:24:49;;;;;;;19.88;9.80;;;10.60;99.90;;;;;;5029096;28;20045;-65
2023/05/05 04:27:15;;;;;;;17.50;9.88;;;10.40;99.90;;;;;;5025768;28;20587;-65
2023/05/05 04:29:41;;;;;;;15.77;10.52;;;10.30;99.90;;;;;;5011086;28;20037;-65
2023/05/05 04:32:09;;;;;;;14.70;8.88;;;10.20;99.90;;;;;;5023541;28;20045;-65
2023/05/05 04:34:35;;;;;;;14.45;9.35;;;10.10;99.90;;;;;;5026287;28;20041;-65
2023/05/05 04:37:00;;;;;;;13.82;8.68;;;10.00;99.90;;;;;;5026114;28;20052;-66
2023/05/05 04:39:26;;;;;;;15.85;8.48;;;10.00;99.90;;;;;;5009943;28;20529;-66
2023/05/05 04:41:52;;;;;;;14.30;8.60;;;9.90;99.90;;;;;;5043063;28;20474;-66
2023/05/05 04:44:17;;;;;;;13.25;9.05;;;9.90;99.90;;;;;;5011780;28;20128;-66
2023/05/05 04:46:43;;;;;;;15.48;8.48;;;9.90;99.90;;;;;;5026425;28;20045;-67
2023/05/05 04:49:09;;;;;;;15.23;8.90;;;9.90;99.90;;;;;;5001801;28;20048;-66
2023/05/05 04:51:35;;;;;;;14.48;8.82;;;9.90;99.90;;;;;;5026836;28;20044;-66
2023/05/05 04:54:00;;;;;;;15.32;9.65;;;9.90;99.90;;;;;;5025250;28;20396;-66
2023/05/05 04:56:26;;;;;;;14.60;8.23;;;9.90;99.90;;;;;;5025923;28;20053;-66
2023/05/05 04:58:52;;;;;;;12.80;8.65;;;9.90;99.90;;;;;;5026097;28;20041;-66
2023/05/05 05:01:18;;;;;;;12.13;8.52;;;9.90;99.90;;;;;;5026213;28;20503;-66
2023/05/05 05:03:43;;;;;;;14.02;8.70;;;9.90;99.90;;;;;;5008408;28;20071;-66
2023/05/05 05:06:09;;;;;;;11.00;8.90;;;9.80;99.90;;;;;;5024790;28;20095;-66
2023/05/05 05:08:35;;;;;;;17.80;9.68;;;9.80;99.90;;;;;;5023315;28;20037;-66
2023/05/05 05:11:01;;;;;;;14.40;8.68;;;9.90;99.90;;;;;;5027006;28;20044;-66
2023/05/05 05:13:26;;;;;;;15.60;8.82;;;9.90;99.90;;;;;;5024494;28;20044;-66
2023/05/05 05:15:52;;;;;;;13.70;9.13;;;9.90;99.90;;;;;;4981034;28;20076;-66
2023/05/05 05:18:18;;;;;;;18.35;8.63;;;9.90;99.90;;;;;;5025865;28;20041;-66
2023/05/05 05:20:44;;;;;;;19.58;9.70;;;9.90;99.90;;;;;;5028807;28;20044;-67
2023/05/05 05:23:10;;;;;;;14.68;8.70;;;9.90;99.90;;;;;;5022155;28;20508;-67
2023/05/05 05:25:35;;;;;;;13.73;8.45;;;10.00;99.90;;;;;;5005677;28;20036;-66
2023/05/05 05:28:01;;;;;;;13.32;8.60;;;9.90;99.90;;;;;;5022578;28;20123;-67
2023/05/05 05:30:27;;;;;;;11.77;8.85;;;9.90;99.90;;;;;;5011256;28;20071;-66
2023/05/05 05:32:53;;;;;;;15.05;9.43;;;9.90;99.90;;;;;;5026298;28;20078;-67
2023/05/05 05:35:19;;;;;;;14.88;8.48;;;9.90;99.90;;;;;;5028629;28;20522;-66
2023/05/05 05:37:46;;;;;;;15.43;8.43;;;9.80;99.90;;;;;;5008249;28;20417;-67
2023/05/05 05:40:12;;;;;;;12.75;8.95;;;9.90;99.90;;;;;;5027456;28;20045;-66
2023/05/05 05:42:40;;;;;;;12.23;8.52;;;9.90;99.90;;;;;;5007435;28;20048;-67
2023/05/05 05:45:07;;;;;;;13.35;8.68;;;9.90;99.90;;;;;;5027393;28;20064;-67
2023/05/05 05:47:33;;;;;;;15.27;8.85;;;9.90;99.90;;;;;;5027505;28;20118;-67
2023/05/05 05:49:59;;;;;;;13.65;8.95;;;10.00;99.90;;;;;;5027613;28;20037;-67
2023/05/05 05:52:25;;;;;;;14.43;8.88;;;10.00;99.90;;;;;;5024347;28;20047;-67
2023/05/05 05:54:50;;;;;;;17.42;9.82;;;10.10;99.90;;;;;;5010417;28;20043;-67
2023/05/05 05:57:17;;;;;;;13.27;9.38;;;10.10;99.90;;;;;;4994270;28;20450;-67
2023/05/05 05:59:43;;;;;;;14.07;9.40;;;10.20;99.90;;;;;;5026162;28;20037;-66
2023/05/05 06:02:09;;;;;;;15.93;9.23;;;10.30;99.90;;;;;;5006574;28;20113;-67
2023/05/05 06:04:35;;;;;;;14.45;8.88;;;10.40;99.90;;;;;;5009750;28;20380;-67
2023/05/05 06:07:01;;;;;;;10.25;8.15;;;10.50;99.90;;;;;;5042835;28;20093;-67
2023/05/05 06:09:26;;;;;;;14.50;9.25;;;10.60;99.90;;;;;;5026640;28;20064;-67
2023/05/05 06:11:52;;;;;;;13.20;8.50;;;10.70;99.90;;;;;;5011556;28;20075;-67
2023/05/05 06:14:18;;;;;;;13.25;8.80;;;10.80;99.90;;;;;;5027306;28;20127;-67
2023/05/05 06:16:44;;;;;;;19.13;9.18;;;10.90;99.90;;;;;;5022774;28;20083;-67
2023/05/05 06:19:12;;;;;;;12.90;9.18;;;11.00;99.90;;;;;;5010245;28;20579;-67
2023/05/05 06:21:38;;;;;;;15.57;9.20;;;11.00;99.90;;;;;;5024638;28;20040;-67
2023/05/05 06:24:04;;;;;;;12.70;8.55;;;11.00;99.90;;;;;;5025098;28;20041;-67
2023/05/05 06:26:30;;;;;;;12.00;8.32;;;11.00;99.90;;;;;;5023217;28;20094;-67
2023/05/05 06:28:56;;;;;;;13.85;8.90;;;11.00;99.90;;;;;;5031349;28;20503;-66
2023/05/05 06:31:22;;;;;;;13.00;8.52;;;11.00;99.90;;;;;;5017196;28;20044;-67
2023/05/05 06:33:47;;;;;;;12.07;8.90;;;11.10;99.90;;;;;;5005605;28;20044;-67
2023/05/05 06:36:13;;;;;;;13.18;8.70;;;11.10;99.90;;;;;;5032954;28;20560;-67
2023/05/05 06:38:39;;;;;;;17.05;9.38;;;11.10;99.90;;;;;;5018195;28;20072;-67
2023/05/05 06:41:05;;;;;;;11.77;9.00;;;11.20;99.90;;;;;;5035763;28;20063;-67
2023/05/05 06:43:31;;;;;;;13.52;8.77;;;11.30;99.90;;;;;;5035343;28;20501;-67
2023/05/05 06:45:57;;;;;;;14.10;8.60;;;11.50;99.90;;;;;;5033819;28;20036;-67
2023/05/05 06:48:22;;;;;;;12.52;9.43;;;11.60;99.90;;;;;;5025491;28;20502;-68
2023/05/05 06:50:51;;;;;;;13.77;9.38;;;11.80;99.90;;;;;;5009132;28;20051;-67
2023/05/05 06:53:16;;;;;;;16.42;9.77;;;11.80;99.90;;;;;;5016286;28;20404;-67
2023/05/05 06:55:46;;;;;;;19.77;9.40;;;12.00;99.90;;;;;;5003374;28;20060;-65
2023/05/05 06:58:15;;;;;;;14.25;9.68;;;12.10;99.90;;;;;;5018282;28;20041;-66
2023/05/05 07:00:41;;;;;;;14.77;9.60;;;12.10;99.90;;;;;;5032496;28;20041;-66
2023/05/05 07:03:09;;;;;;;14.00;9.10;;;12.10;99.90;;;;;;5018764;28;20543;-66
2023/05/05 07:05:35;;;;;;;14.77;10.32;;;12.20;99.90;;;;;;5033732;28;20032;-66
2023/05/05 07:08:01;;;;;;;13.52;9.98;;;12.30;99.90;;;;;;5034156;28;20041;-66
2023/05/05 07:10:27;;;;;;;13.27;10.25;;;12.50;99.90;;;;;;5033548;28;20041;-66
2023/05/05 07:12:53;;;;;;;15.57;10.23;;;12.60;99.90;;;;;;5035056;28;20146;-66
2023/05/05 07:15:21;;;;;;;18.02;10.48;;;12.80;99.90;;;;;;5011852;28;20053;-65
2023/05/05 07:17:47;;;;;;;19.50;10.00;;;13.20;99.90;;;;;;5029612;28;20049;-65
2023/05/05 07:20:18;;;;;;;14.43;9.65;;;13.90;99.90;;;;;;5014065;28;20085;-65
2023/05/05 07:22:44;;;;;;;12.75;9.05;;;14.60;99.90;;;;;;5017004;28;20037;-65
2023/05/05 07:25:11;;;;;;;15.63;9.55;;;15.10;99.90;;;;;;4998606;28;20047;-66
2023/05/05 07:27:37;;;;;;;17.45;8.65;;;15.60;99.90;;;;;;5031595;28;20095;-65
2023/05/05 07:30:03;;;;;;;13.30;9.18;;;16.10;99.90;;;;;;5033260;28;20058;-65
2023/05/05 07:32:29;;;;;;;13.80;9.63;;;16.30;99.90;;;;;;5015706;28;20041;-65
2023/05/05 07:34:55;;;;;;;15.85;9.05;;;16.70;99.90;;;;;;5030829;28;20052;-65
2023/05/05 07:37:21;;;;;;;13.27;9.43;;;16.70;99.90;;;;;;5028817;28;20049;-65
2023/05/05 07:39:47;;;;;;;13.93;9.20;;;16.90;99.90;;;;;;5016090;28;20071;-65
2023/05/05 07:42:13;;;;;;;10.32;9.10;;;17.20;99.90;;;;;;5026636;28;20116;-67
2023/05/05 07:44:39;;;;;;;14.80;9.52;;;17.70;99.90;;;;;;5032403;28;20079;-67
2023/05/05 07:47:05;;;;;;;11.55;9.30;;;18.40;99.90;;;;;;4978133;28;20045;-67
2023/05/05 07:49:31;;;;;;;12.38;9.93;;;18.90;99.90;;;;;;5033668;28;20041;-67
2023/05/05 07:51:57;;;;;;;16.05;10.07;;;19.00;99.90;;;;;;5014141;28;20041;-67
2023/05/05 07:54:22;;;;;;;12.18;9.68;;;19.10;99.90;;;;;;5000451;28;20033;-67
2023/05/05 07:56:48;;;;;;;10.10;8.75;;;19.40;99.90;;;;;;5016562;28;20048;-67
2023/05/05 07:59:14;;;;;;;15.43;9.95;;;19.70;99.90;;;;;;5033721;28;20069;-67
2023/05/05 08:01:40;;;;;;;11.20;9.75;;;20.00;99.90;;;;;;5032501;28;20114;-67
2023/05/05 08:04:06;;;;;;;11.77;9.07;;;20.30;98.70;;;;;;5016655;28;20120;-67
2023/05/05 08:06:32;;;;;;;11.23;9.15;;;19.90;98.80;;;;;;5030466;28;20128;-67
2023/05/05 08:09:01;;;;;;;14.32;9.73;;;20.10;99.70;;;;;;5016810;28;20040;-67
2023/05/05 08:11:27;;;;;;;16.98;9.95;;;20.70;98.90;;;;;;5017362;28;20029;-67
2023/05/05 08:13:53;;;;;;;13.32;9.55;;;20.50;97.10;;;;;;5016885;28;20498;-67
2023/05/05 08:16:19;;;;;;;10.07;8.98;;;20.70;98.10;;;;;;5032001;28;20110;-67
2023/05/05 08:18:45;;;;;;;13.60;9.90;;;21.20;98.00;;;;;;5015529;28;20079;-66
2023/05/05 08:21:11;;;;;;;12.13;9.50;;;21.60;97.70;;;;;;5012710;28;20041;-66
2023/05/05 08:23:38;;;;;;;12.82;10.63;;;21.70;97.30;;;;;;5030119;28;20138;-67
2023/05/05 08:26:10;;;;;;;14.25;9.80;;;22.40;97.10;;;;;;5016672;28;20037;-67
2023/05/05 08:28:36;;;;;;;12.55;10.00;;;22.60;95.80;;;;;;5032681;28;20040;-67
2023/05/05 08:31:05;;;;;;;14.32;10.35;;;22.60;96.20;;;;;;5016110;28;20037;-66
2023/05/05 08:33:31;;;;;;;15.73;10.70;;;23.00;95.50;;;;;;4999707;28;20045;-67
2023/05/05 08:35:57;;;;;;;14.70;11.35;;;22.90;94.90;;;;;;5030210;28;20041;-67
2023/05/05 08:38:23;;;;;;;14.05;10.27;;;22.80;94.40;;;;;;5032865;28;20397;-67
2023/05/05 08:40:50;;;;;;;15.93;11.07;;;22.30;94.00;;;;;;5017152;28;20389;-66
2023/05/05 08:43:19;;;;;;;13.82;10.77;;;22.50;94.40;;;;;;5014008;28;20041;-67
2023/05/05 08:45:45;;;;;;;15.90;10.88;;;22.20;93.40;;;;;;5031598;28;20045;-67
2023/05/05 08:48:12;;;;;;;15.23;11.50;;;21.90;94.20;;;;;;5013725;28;20082;-67
2023/05/05 08:50:38;;;;;;;12.27;10.98;;;21.90;94.70;;;;;;5031565;28;20049;-67
2023/05/05 08:53:09;;;;;;;15.27;12.02;;;21.80;94.90;;;;;;5013504;28;20258;-67
2023/05/05 08:55:50;;;;;;;14.20;11.20;;;22.30;94.90;;;;;;5032131;28;20048;-67
2023/05/05 08:58:21;;;;;;;14.75;10.85;;;22.70;94.50;;;;;;5019995;28;20075;-66
2023/05/05 09:00:48;;;;;;;14.90;10.70;;;23.10;94.70;;;;;;5016336;28;20041;-67
2023/05/05 09:03:15;;;;;;;12.85;10.30;;;23.10;94.00;;;;;;5030963;28;20033;-66
2023/05/05 09:05:41;;;;;;;14.80;11.15;;;22.40;93.70;;;;;;4999039;28;20115;-67
2023/05/05 09:08:09;;;;;;;12.75;11.27;;;22.20;94.90;;;;;;5030736;28;20090;-66
2023/05/05 09:10:35;;;;;;;12.05;10.35;;;22.40;94.50;;;;;;5032817;28;20129;-66
2023/05/05 09:13:05;;;;;;;13.70;10.38;;;22.40;95.10;;;;;;4994213;28;20076;-65
2023/05/05 09:15:31;;;;;;;11.35;9.68;;;22.70;95.00;;;;;;5025905;28;20049;-66
2023/05/05 09:17:59;;;;;;;11.57;9.30;;;22.20;94.60;;;;;;5028576;28;20056;-66
2023/05/05 09:20:33;;;;;;;10.23;9.18;;;22.00;94.90;;;;;;5028057;28;20071;-66
2023/05/05 09:23:16;;;;;;;11.88;9.90;;;22.30;95.60;;;;;;5025744;28;20033;-66
2023/05/05 09:25:44;;;;;;;13.80;10.10;;;22.40;95.00;;;;;;5013836;28;20036;-65
2023/05/05 09:28:12;;;;;;;16.10;9.95;;;22.10;95.00;;;;;;5027125;28;20068;-66
2023/05/05 09:30:40;;;;;;;11.20;8.55;;;22.30;95.80;;;;;;5010477;28;20063;-66
2023/05/05 09:33:06;;;;;;;12.95;9.98;;;22.80;95.50;;;;;;5013994;28;20044;-67
2023/05/05 09:35:53;;;;;;;12.25;10.15;;;23.30;95.00;;;;;;5024579;28;20450;-67
2023/05/05 09:38:23;;;;;;;15.45;11.10;;;23.30;95.00;;;;;;5008458;28;20141;-67
2023/05/05 09:40:52;;;;;;;13.30;10.38;;;23.60;94.70;;;;;;5027661;28;20041;-68
2023/05/05 09:43:22;;;;;;;13.60;10.50;;;23.20;94.60;;;;;;5032114;28;20490;-67
2023/05/05 09:45:49;;;;;;;15.68;11.30;;;23.00;94.10;;;;;;5026613;28;20041;-67
2023/05/05 09:48:30;;;;;;;15.38;11.10;;;23.10;94.20;;;;;;5026145;28;20498;-67
2023/05/05 09:50:57;;;;;;;14.68;10.73;;;22.60;94.10;;;;;;5024933;28;20055;-68
2023/05/05 09:53:24;;;;;;;17.90;11.75;;;22.40;94.60;;;;;;5029148;28;20037;-68
2023/05/05 09:56:00;;;;;;;12.68;10.20;;;22.40;94.80;;;;;;5015368;28;20124;-67
2023/05/05 09:58:29;;;;;;;15.30;11.50;;;22.50;95.80;;;;;;4997383;28;20041;-67
2023/05/05 10:00:56;;;;;;;12.90;10.77;;;22.70;94.50;;;;;;5015035;28;20122;-68
2023/05/05 10:03:23;;;;;;;12.85;10.90;;;22.50;95.00;;;;;;5032946;28;20372;-67
2023/05/05 10:05:54;;;;;;;13.45;11.20;;;22.90;95.50;;;;;;5034072;28;20143;-68
2023/05/05 10:08:25;;;;;;;18.77;11.27;;;22.70;94.50;;;;;;5032297;28;20045;-67
2023/05/05 10:11:05;;;;;;;16.90;11.82;;;22.30;94.80;;;;;;5035351;28;20053;-67
2023/05/05 10:13:36;;;;;;;19.23;12.40;;;21.90;94.70;;;;;;5022630;28;20041;-67
2023/05/05 10:16:03;;;;;;;18.05;13.55;;;21.90;95.50;;;;;;5029277;28;20053;-67
2023/05/05 10:18:31;;;;;;;18.73;12.30;;;22.00;95.70;;;;;;5019289;28;20041;-67
2023/05/05 10:20:59;;;;;;;16.85;13.30;;;22.20;95.70;;;;;;5034654;28;20044;-67
2023/05/05 10:23:38;;;;;;;14.98;11.23;;;22.70;95.50;;;;;;5034387;28;20063;-67
2023/05/05 10:26:09;;;;;;;16.48;12.82;;;22.90;94.90;;;;;;5028069;28;20060;-67
2023/05/05 10:28:44;;;;;;;14.48;11.95;;;23.00;95.00;;;;;;5035141;28;20532;-67
2023/05/05 10:31:28;;;;;;;19.38;12.30;;;22.70;94.90;;;;;;5024751;28;20045;-68
2023/05/05 10:33:57;;;;;;;14.30;12.20;;;22.80;95.30;;;;;;5021319;28;20132;-67
2023/05/05 10:36:24;;;;;;;13.00;11.60;;;22.50;95.10;;;;;;5013140;28;20056;-66
2023/05/05 10:38:55;;;;;;;14.50;12.75;;;22.10;95.10;;;;;;5032273;28;20140;-66
2023/05/05 10:41:21;;;;;;;16.88;12.45;;;22.00;95.70;;;;;;5030060;28;20033;-67
2023/05/05 10:43:48;;;;;;;14.57;11.93;;;22.20;95.80;;;;;;5013293;28;20048;-65
2023/05/05 10:46:14;;;;;;;16.42;11.38;;;22.40;95.90;;;;;;5026010;28;20033;-67
2023/05/05 10:48:55;;;;;;;16.77;12.68;;;22.80;96.10;;;;;;5053126;28;20611;-68
2023/05/05 10:51:28;;;;;;;16.92;12.10;;;22.60;94.90;;;;;;5045023;28;20399;-67
2023/05/05 10:54:01;;;;;;;14.48;11.85;;;22.80;95.20;;;;;;5014776;28;20397;-67
2023/05/05 10:56:31;;;;;;;14.80;11.00;;;22.90;95.20;;;;;;5028361;28;20375;-68
2023/05/05 10:58:57;;;;;;;16.40;10.70;;;22.90;95.60;;;;;;5005517;28;20053;-68
2023/05/05 11:01:41;;;;;;;16.15;11.00;;;23.00;95.00;;;;;;5012650;28;20041;-69
2023/05/05 11:04:21;;;;;;;14.10;10.90;;;22.80;94.40;;;;;;5029638;28;20067;-68
2023/05/05 11:07:09;;;;;;;14.70;10.55;;;22.60;95.10;;;;;;5031081;28;20087;-68
2023/05/05 11:09:41;;;;;;;12.65;10.18;;;22.40;95.30;;;;;;5035443;28;20048;-68
2023/05/05 11:12:07;;;;;;;13.55;10.48;;;22.00;95.30;;;;;;5035230;28;20409;-68
2023/05/05 11:14:34;;;;;;;11.52;9.43;;;22.00;96.00;;;;;;5017270;28;20444;-68
2023/05/05 11:17:00;;;;;;;13.73;9.82;;;22.10;96.40;;;;;;5033779;28;20079;-67
2023/05/05 11:19:46;;;;;;;12.30;9.77;;;22.00;95.50;;;;;;5030347;28;20059;-68
2023/05/05 11:22:12;;;;;;;12.82;9.57;;;22.20;95.20;;;;;;5040873;28;20083;-67
2023/05/05 11:24:41;;;;;;;9.20;8.02;;;22.30;95.50;;;;;;5013608;28;20037;-68
2023/05/05 11:27:07;;;;;;;12.18;8.35;;;22.50;95.60;;;;;;5033154;28;20052;-68
2023/05/05 11:30:07;;;;;;;9.65;7.93;;;22.70;95.20;;;;;;5034384;28;20398;-68
2023/05/05 11:32:33;;;;;;;10.75;7.38;;;22.60;94.60;;;;;;5032305;28;20043;-68
2023/05/05 11:35:00;;;;;;;9.43;8.10;;;22.70;94.80;;;;;;5028317;28;20041;-68
2023/05/05 11:37:27;;;;;;;9.30;7.28;;;22.70;94.70;;;;;;5025846;28;20084;-68
2023/05/05 11:40:19;;;;;;;10.38;7.07;;;22.60;94.60;;;;;;5015751;28;20072;-69
2023/05/05 11:42:45;;;;;;;8.57;7.07;;;22.40;93.80;;;;;;5015735;28;20397;-70
2023/05/05 11:45:22;;;;;;;8.95;5.63;;;22.30;94.80;;;;;;5027118;28;20092;-68
2023/05/05 11:47:49;;;;;;;10.55;5.30;;;22.30;94.40;;;;;;5032167;28;20044;-68
2023/05/05 11:50:16;;;;;;;6.35;4.70;;;22.20;94.40;;;;;;5030918;28;20102;-67
2023/05/05 11:52:42;;;;;;;7.68;4.43;;;22.00;94.10;;;;;;5024962;28;20063;-68
2023/05/05 11:55:08;;;;;;;11.55;5.18;;;21.90;94.20;;;;;;5004384;28;20580;-72
2023/05/05 11:57:34;;;;;;;7.07;4.72;;;21.80;93.90;;;;;;4996582;28;20040;-70
2023/05/05 12:00:04;;;;;;;6.25;5.25;;;21.60;94.20;;;;;;5011158;28;20029;-73
2023/05/05 12:02:30;;;;;;;12.95;4.55;;;21.50;94.30;;;;;;5027159;28;20041;-73
2023/05/05 12:04:58;;;;;;;7.18;4.32;;;21.40;94.50;;;;;;5010783;28;20037;-73
2023/05/05 12:07:29;;;;;;;6.75;3.58;;;21.30;94.80;;;;;;5011640;28;20044;-74
2023/05/05 12:09:54;;;;;;;5.50;3.10;;;21.20;94.30;;;;;;5012095;28;20557;-72
2023/05/05 12:12:32;;;;;;;5.20;3.47;;;20.80;94.40;;;;;;5027886;28;20037;-71
2023/05/05 12:14:58;;;;;;;4.82;3.42;;;20.70;94.80;;;;;;5029180;28;20057;-72
2023/05/05 12:17:34;;;;;;;6.28;3.30;;;20.70;95.40;;;;;;5031689;28;20059;-72
2023/05/05 12:20:00;;;;;;;6.47;3.17;;;20.50;95.30;;;;;;5029750;28;20073;-71
2023/05/05 12:22:26;;;;;;;5.57;3.40;;;20.50;95.60;;;;;;5010307;28;20105;-72
2023/05/05 12:24:57;;;;;;;6.45;3.35;;;20.30;95.70;;;;;;5027244;28;20556;-71
2023/05/05 12:27:25;;;;;;;6.20;3.40;;;20.30;96.10;;;;;;5032015;28;20120;-72
2023/05/05 12:29:53;;;;;;;8.10;3.70;;;20.30;95.90;;;;;;5012145;28;20037;-73
2023/05/05 12:32:28;;;;;;;13.98;3.90;;;20.30;96.20;;;;;;4996067;28;20069;-72
2023/05/05 12:34:57;;;;;;;10.55;3.97;;;20.30;97.40;;;;;;5024238;28;20055;-72
2023/05/05 12:37:24;;;;;;;6.93;3.15;;;20.20;98.00;;;;;;5011215;28;20033;-71
2023/05/05 12:39:51;;;;;;;6.53;4.85;;;20.10;98.80;;;;;;5030132;28;20120;-72
2023/05/05 12:42:17;;;;;;;7.18;3.95;;;20.10;98.70;;;;;;5015612;28;20044;-71
2023/05/05 12:44:43;;;;;;;7.47;3.60;;;19.90;99.20;;;;;;5006944;28;20062;-72
2023/05/05 12:47:11;;;;;;;6.25;3.30;;;19.90;99.40;;;;;;5016415;28;20095;-72